sensor_id;sensor_type;location;lat;lon;timestamp;temperature;humidity
10788;DHT22;5446;50.826;4.380;2023-09-07T00:01:26;20.10;99.90
10788;DHT22;5446;50.826;4.380;2023-09-07T00:03:53;20.10;99.90
10788;DHT22;5446;50.826;4.380;2023-09-07T00:06:18;20.00;99.90
10788;DHT22;5446;50.826;4.380;2023-09-07T00:08:44;20.00;99.90
10788;DHT22;5446;50.826;4.380;2023-09-07T00:11:10;20.00;99.90
10788;DHT22;5446;50.826;4.380;2023-09-07T00:13:36;20.00;99.90
10788;DHT22;5446;50.826;4.380;2023-09-07T00:16:03;19.90;99.90
10788;DHT22;5446;50.826;4.380;2023-09-07T00:18:32;19.90;99.90
10788;DHT22;5446;50.826;4.380;2023-09-07T00:20:59;19.90;99.90
10788;DHT22;5446;50.826;4.380;2023-09-07T00:23:26;19.80;99.90
10788;DHT22;5446;50.826;4.380;2023-09-07T00:25:51;19.80;99.90
10788;DHT22;5446;50.826;4.380;2023-09-07T00:28:17;19.80;99.90
10788;DHT22;5446;50.826;4.380;2023-09-07T00:30:43;19.70;99.90
10788;DHT22;5446;50.826;4.380;2023-09-07T00:33:09;19.60;99.90
10788;DHT22;5446;50.826;4.380;2023-09-07T00:35:35;19.60;99.90
10788;DHT22;5446;50.826;4.380;2023-09-07T00:38:01;19.60;99.90
10788;DHT22;5446;50.826;4.380;2023-09-07T00:40:26;19.50;99.90
10788;DHT22;5446;50.826;4.380;2023-09-07T00:42:53;19.50;99.90
10788;DHT22;5446;50.826;4.380;2023-09-07T00:45:19;19.40;99.90
10788;DHT22;5446;50.826;4.380;2023-09-07T00:47:45;19.40;99.90
10788;DHT22;5446;50.826;4.380;2023-09-07T00:50:11;19.40;99.90
10788;DHT22;5446;50.826;4.380;2023-09-07T00:52:42;19.40;99.90
10788;DHT22;5446;50.826;4.380;2023-09-07T00:55:08;19.40;99.90
10788;DHT22;5446;50.826;4.380;2023-09-07T00:57:35;19.40;99.90
10788;DHT22;5446;50.826;4.380;2023-09-07T01:00:03;19.30;99.90
10788;DHT22;5446;50.826;4.380;2023-09-07T01:02:31;19.30;99.90
10788;DHT22;5446;50.826;4.380;2023-09-07T01:04:57;19.30;99.90
10788;DHT22;5446;50.826;4.380;2023-09-07T01:07:46;19.40;99.90
10788;DHT22;5446;50.826;4.380;2023-09-07T01:10:12;19.40;99.90
10788;DHT22;5446;50.826;4.380;2023-09-07T01:12:40;19.40;99.90
10788;DHT22;5446;50.826;4.380;2023-09-07T01:15:06;19.30;99.90
10788;DHT22;5446;50.826;4.380;2023-09-07T01:17:33;19.30;99.90
10788;DHT22;5446;50.826;4.380;2023-09-07T01:20:03;19.20;99.90
10788;DHT22;5446;50.826;4.380;2023-09-07T01:22:31;19.20;99.90
10788;DHT22;5446;50.826;4.380;2023-09-07T01:24:58;19.20;99.90
10788;DHT22;5446;50.826;4.380;2023-09-07T01:27:26;19.10;99.90
10788;DHT22;5446;50.826;4.380;2023-09-07T01:29:52;19.20;99.90
10788;DHT22;5446;50.826;4.380;2023-09-07T01:32:17;19.10;99.90
10788;DHT22;5446;50.826;4.380;2023-09-07T01:34:43;19.10;99.90
10788;DHT22;5446;50.826;4.380;2023-09-07T01:37:09;19.00;99.90
10788;DHT22;5446;50.826;4.380;2023-09-07T01:39:35;19.00;99.90
10788;DHT22;5446;50.826;4.380;2023-09-07T01:42:00;19.00;99.90
10788;DHT22;5446;50.826;4.380;2023-09-07T01:44:26;19.00;99.90
10788;DHT22;5446;50.826;4.380;2023-09-07T01:46:52;19.00;99.90
10788;DHT22;5446;50.826;4.380;2023-09-07T01:49:18;19.00;99.90
10788;DHT22;5446;50.826;4.380;2023-09-07T01:51:44;19.00;99.90
10788;DHT22;5446;50.826;4.380;2023-09-07T01:54:09;18.90;99.90
10788;DHT22;5446;50.826;4.380;2023-09-07T01:56:36;18.90;99.90
10788;DHT22;5446;50.826;4.380;2023-09-07T01:59:02;18.90;99.90
10788;DHT22;5446;50.826;4.380;2023-09-07T02:01:31;18.90;99.90
10788;DHT22;5446;50.826;4.380;2023-09-07T02:03:57;18.90;99.90
10788;DHT22;5446;50.826;4.380;2023-09-07T02:06:23;18.90;99.90
10788;DHT22;5446;50.826;4.380;2023-09-07T02:08:49;18.80;99.90
10788;DHT22;5446;50.826;4.380;2023-09-07T02:11:15;18.80;99.90
10788;DHT22;5446;50.826;4.380;2023-09-07T02:13:47;18.80;99.90
10788;DHT22;5446;50.826;4.380;2023-09-07T02:16:13;18.80;99.90
10788;DHT22;5446;50.826;4.380;2023-09-07T02:18:39;18.80;99.90
10788;DHT22;5446;50.826;4.380;2023-09-07T02:21:11;18.80;99.90
10788;DHT22;5446;50.826;4.380;2023-09-07T02:23:37;18.80;99.90
10788;DHT22;5446;50.826;4.380;2023-09-07T02:26:03;18.70;99.90
10788;DHT22;5446;50.826;4.380;2023-09-07T02:28:30;18.70;99.90
10788;DHT22;5446;50.826;4.380;2023-09-07T02:31:03;18.70;99.90
10788;DHT22;5446;50.826;4.380;2023-09-07T02:33:29;18.70;99.90
10788;DHT22;5446;50.826;4.380;2023-09-07T02:35:54;18.70;99.90
10788;DHT22;5446;50.826;4.380;2023-09-07T02:38:21;18.70;99.90
10788;DHT22;5446;50.826;4.380;2023-09-07T02:40:46;18.70;99.90
10788;DHT22;5446;50.826;4.380;2023-09-07T02:43:12;18.70;99.90
10788;DHT22;5446;50.826;4.380;2023-09-07T02:45:38;18.70;99.90
10788;DHT22;5446;50.826;4.380;2023-09-07T02:48:05;18.70;99.90
10788;DHT22;5446;50.826;4.380;2023-09-07T02:50:33;18.70;99.90
10788;DHT22;5446;50.826;4.380;2023-09-07T02:52:59;18.70;99.90
10788;DHT22;5446;50.826;4.380;2023-09-07T02:55:26;18.70;99.90
10788;DHT22;5446;50.826;4.380;2023-09-07T02:57:52;18.70;99.90
10788;DHT22;5446;50.826;4.380;2023-09-07T03:00:19;18.70;99.90
10788;DHT22;5446;50.826;4.380;2023-09-07T03:02:45;18.70;99.90
10788;DHT22;5446;50.826;4.380;2023-09-07T03:05:10;18.70;99.90
10788;DHT22;5446;50.826;4.380;2023-09-07T03:07:37;18.70;99.90
10788;DHT22;5446;50.826;4.380;2023-09-07T03:10:05;18.60;99.90
10788;DHT22;5446;50.826;4.380;2023-09-07T03:12:31;18.60;99.90
10788;DHT22;5446;50.826;4.380;2023-09-07T03:14:56;18.60;99.90
10788;DHT22;5446;50.826;4.380;2023-09-07T03:17:22;18.60;99.90
10788;DHT22;5446;50.826;4.380;2023-09-07T03:19:48;18.60;99.90
10788;DHT22;5446;50.826;4.380;2023-09-07T03:22:14;18.60;99.90
10788;DHT22;5446;50.826;4.380;2023-09-07T03:24:40;18.60;99.90
10788;DHT22;5446;50.826;4.380;2023-09-07T03:27:06;18.60;99.90
10788;DHT22;5446;50.826;4.380;2023-09-07T03:29:32;18.60;99.90
10788;DHT22;5446;50.826;4.380;2023-09-07T03:31:59;18.50;99.90
10788;DHT22;5446;50.826;4.380;2023-09-07T03:34:25;18.50;99.90
10788;DHT22;5446;50.826;4.380;2023-09-07T03:36:51;18.50;99.90
10788;DHT22;5446;50.826;4.380;2023-09-07T03:39:17;18.50;99.90
10788;DHT22;5446;50.826;4.380;2023-09-07T03:41:49;18.40;99.90
10788;DHT22;5446;50.826;4.380;2023-09-07T03:44:14;18.40;99.90
10788;DHT22;5446;50.826;4.380;2023-09-07T03:46:41;18.40;99.90
10788;DHT22;5446;50.826;4.380;2023-09-07T03:49:06;18.40;99.90
10788;DHT22;5446;50.826;4.380;2023-09-07T03:51:32;18.30;99.90
10788;DHT22;5446;50.826;4.380;2023-09-07T03:53:58;18.30;99.90
10788;DHT22;5446;50.826;4.380;2023-09-07T03:56:24;18.30;99.90
10788;DHT22;5446;50.826;4.380;2023-09-07T03:58:50;18.30;99.90
10788;DHT22;5446;50.826;4.380;2023-09-07T04:01:16;18.30;99.90
10788;DHT22;5446;50.826;4.380;2023-09-07T04:03:42;18.30;99.90
10788;DHT22;5446;50.826;4.380;2023-09-07T04:06:07;18.30;99.90
10788;DHT22;5446;50.826;4.380;2023-09-07T04:08:33;18.30;99.90
10788;DHT22;5446;50.826;4.380;2023-09-07T04:11:03;18.30;99.90
10788;DHT22;5446;50.826;4.380;2023-09-07T04:13:29;18.30;99.90
10788;DHT22;5446;50.826;4.380;2023-09-07T04:15:55;18.20;99.90
10788;DHT22;5446;50.826;4.380;2023-09-07T04:18:20;18.30;99.90
10788;DHT22;5446;50.826;4.380;2023-09-07T04:20:46;18.30;99.90
10788;DHT22;5446;50.826;4.380;2023-09-07T04:23:12;18.20;99.90
10788;DHT22;5446;50.826;4.380;2023-09-07T04:25:38;18.10;99.90
10788;DHT22;5446;50.826;4.380;2023-09-07T04:28:07;18.10;99.90
10788;DHT22;5446;50.826;4.380;2023-09-07T04:30:37;18.10;99.90
10788;DHT22;5446;50.826;4.380;2023-09-07T04:33:02;18.20;99.90
10788;DHT22;5446;50.826;4.380;2023-09-07T04:35:29;18.20;99.90
10788;DHT22;5446;50.826;4.380;2023-09-07T04:37:57;18.20;99.90
10788;DHT22;5446;50.826;4.380;2023-09-07T04:40:24;18.10;99.90
10788;DHT22;5446;50.826;4.380;2023-09-07T04:42:50;18.10;99.90
10788;DHT22;5446;50.826;4.380;2023-09-07T04:45:15;18.00;99.90
10788;DHT22;5446;50.826;4.380;2023-09-07T04:47:41;18.00;99.90
10788;DHT22;5446;50.826;4.380;2023-09-07T04:50:08;18.00;99.90
10788;DHT22;5446;50.826;4.380;2023-09-07T04:52:33;17.90;99.90
10788;DHT22;5446;50.826;4.380;2023-09-07T04:55:00;17.90;99.90
10788;DHT22;5446;50.826;4.380;2023-09-07T04:57:26;17.90;99.90
10788;DHT22;5446;50.826;4.380;2023-09-07T04:59:52;17.90;99.90
10788;DHT22;5446;50.826;4.380;2023-09-07T05:02:18;17.90;99.90
10788;DHT22;5446;50.826;4.380;2023-09-07T05:04:44;17.80;99.90
10788;DHT22;5446;50.826;4.380;2023-09-07T05:07:10;17.90;99.90
10788;DHT22;5446;50.826;4.380;2023-09-07T05:09:36;17.90;99.90
10788;DHT22;5446;50.826;4.380;2023-09-07T05:12:02;17.90;99.90
10788;DHT22;5446;50.826;4.380;2023-09-07T05:14:28;17.90;99.90
10788;DHT22;5446;50.826;4.380;2023-09-07T05:16:55;17.80;99.90
10788;DHT22;5446;50.826;4.380;2023-09-07T05:19:22;17.90;99.90
10788;DHT22;5446;50.826;4.380;2023-09-07T05:21:48;17.90;99.90
10788;DHT22;5446;50.826;4.380;2023-09-07T05:24:14;17.90;99.90
10788;DHT22;5446;50.826;4.380;2023-09-07T05:26:42;17.90;99.90
10788;DHT22;5446;50.826;4.380;2023-09-07T05:29:09;17.90;99.90
10788;DHT22;5446;50.826;4.380;2023-09-07T05:31:35;17.90;99.90
10788;DHT22;5446;50.826;4.380;2023-09-07T05:34:01;18.00;99.90
10788;DHT22;5446;50.826;4.380;2023-09-07T05:36:27;18.00;99.90
10788;DHT22;5446;50.826;4.380;2023-09-07T05:38:53;17.90;99.90
10788;DHT22;5446;50.826;4.380;2023-09-07T05:41:18;17.90;99.90
10788;DHT22;5446;50.826;4.380;2023-09-07T05:43:44;17.90;99.90
10788;DHT22;5446;50.826;4.380;2023-09-07T05:46:10;17.90;99.90
10788;DHT22;5446;50.826;4.380;2023-09-07T05:48:36;17.90;99.90
10788;DHT22;5446;50.826;4.380;2023-09-07T05:51:02;18.00;99.90
10788;DHT22;5446;50.826;4.380;2023-09-07T05:53:29;18.10;99.90
10788;DHT22;5446;50.826;4.380;2023-09-07T05:55:56;18.10;99.90
10788;DHT22;5446;50.826;4.380;2023-09-07T05:58:21;18.10;99.90
10788;DHT22;5446;50.826;4.380;2023-09-07T06:00:47;18.10;99.90
10788;DHT22;5446;50.826;4.380;2023-09-07T06:03:13;18.10;99.90
10788;DHT22;5446;50.826;4.380;2023-09-07T06:05:39;18.10;99.90
10788;DHT22;5446;50.826;4.380;2023-09-07T06:08:05;18.10;99.90
10788;DHT22;5446;50.826;4.380;2023-09-07T06:10:34;18.10;99.90
10788;DHT22;5446;50.826;4.380;2023-09-07T06:13:00;18.10;99.90
10788;DHT22;5446;50.826;4.380;2023-09-07T06:15:26;18.20;99.90
10788;DHT22;5446;50.826;4.380;2023-09-07T06:17:52;18.20;99.90
10788;DHT22;5446;50.826;4.380;2023-09-07T06:20:19;18.30;99.90
10788;DHT22;5446;50.826;4.380;2023-09-07T06:22:45;18.30;99.90
10788;DHT22;5446;50.826;4.380;2023-09-07T06:25:11;18.30;99.90
10788;DHT22;5446;50.826;4.380;2023-09-07T06:27:37;18.40;99.90
10788;DHT22;5446;50.826;4.380;2023-09-07T06:30:05;18.40;99.90
10788;DHT22;5446;50.826;4.380;2023-09-07T06:32:31;18.40;99.90
10788;DHT22;5446;50.826;4.380;2023-09-07T06:34:58;18.50;99.90
10788;DHT22;5446;50.826;4.380;2023-09-07T06:37:24;18.60;99.90
10788;DHT22;5446;50.826;4.380;2023-09-07T06:39:50;18.70;99.90
10788;DHT22;5446;50.826;4.380;2023-09-07T06:42:16;18.70;99.90
10788;DHT22;5446;50.826;4.380;2023-09-07T06:44:42;18.70;99.90
10788;DHT22;5446;50.826;4.380;2023-09-07T06:47:08;18.80;99.90
10788;DHT22;5446;50.826;4.380;2023-09-07T06:49:34;18.90;99.90
10788;DHT22;5446;50.826;4.380;2023-09-07T06:52:00;19.00;99.90
10788;DHT22;5446;50.826;4.380;2023-09-07T06:54:28;19.10;99.90
10788;DHT22;5446;50.826;4.380;2023-09-07T06:56:54;19.10;99.90
10788;DHT22;5446;50.826;4.380;2023-09-07T06:59:19;19.30;99.90
10788;DHT22;5446;50.826;4.380;2023-09-07T07:01:45;19.40;99.90
10788;DHT22;5446;50.826;4.380;2023-09-07T07:04:11;19.40;99.90
10788;DHT22;5446;50.826;4.380;2023-09-07T07:06:36;19.50;99.90
10788;DHT22;5446;50.826;4.380;2023-09-07T07:09:02;19.50;99.90
10788;DHT22;5446;50.826;4.380;2023-09-07T07:11:28;19.60;99.90
10788;DHT22;5446;50.826;4.380;2023-09-07T07:13:54;19.60;99.90
10788;DHT22;5446;50.826;4.380;2023-09-07T07:16:19;19.70;99.90
10788;DHT22;5446;50.826;4.380;2023-09-07T07:18:45;19.80;99.90
10788;DHT22;5446;50.826;4.380;2023-09-07T07:21:11;19.80;99.90
10788;DHT22;5446;50.826;4.380;2023-09-07T07:23:36;19.90;99.90
10788;DHT22;5446;50.826;4.380;2023-09-07T07:26:02;20.00;99.90
10788;DHT22;5446;50.826;4.380;2023-09-07T07:28:28;20.10;99.90
10788;DHT22;5446;50.826;4.380;2023-09-07T07:30:53;20.20;99.90
10788;DHT22;5446;50.826;4.380;2023-09-07T07:33:20;20.20;99.90
10788;DHT22;5446;50.826;4.380;2023-09-07T07:35:45;20.20;99.90
10788;DHT22;5446;50.826;4.380;2023-09-07T07:38:13;20.30;99.90
10788;DHT22;5446;50.826;4.380;2023-09-07T07:40:39;20.30;99.90
10788;DHT22;5446;50.826;4.380;2023-09-07T07:43:05;20.40;99.90
10788;DHT22;5446;50.826;4.380;2023-09-07T07:45:32;20.40;99.90
10788;DHT22;5446;50.826;4.380;2023-09-07T07:48:02;20.50;99.90
10788;DHT22;5446;50.826;4.380;2023-09-07T07:50:28;20.70;99.90
10788;DHT22;5446;50.826;4.380;2023-09-07T07:52:53;20.80;99.90
10788;DHT22;5446;50.826;4.380;2023-09-07T07:55:19;20.90;99.90
10788;DHT22;5446;50.826;4.380;2023-09-07T07:57:45;21.10;99.90
10788;DHT22;5446;50.826;4.380;2023-09-07T08:00:11;21.20;99.90
10788;DHT22;5446;50.826;4.380;2023-09-07T08:02:37;21.30;99.90
10788;DHT22;5446;50.826;4.380;2023-09-07T08:05:03;21.40;99.90
10788;DHT22;5446;50.826;4.380;2023-09-07T08:07:29;21.50;99.90
10788;DHT22;5446;50.826;4.380;2023-09-07T08:09:55;21.50;99.90
10788;DHT22;5446;50.826;4.380;2023-09-07T08:12:21;21.60;99.90
10788;DHT22;5446;50.826;4.380;2023-09-07T08:14:47;21.70;99.90
10788;DHT22;5446;50.826;4.380;2023-09-07T08:17:12;21.70;99.90
10788;DHT22;5446;50.826;4.380;2023-09-07T08:19:38;21.70;99.90
10788;DHT22;5446;50.826;4.380;2023-09-07T08:22:04;21.70;99.90
10788;DHT22;5446;50.826;4.380;2023-09-07T08:24:31;21.80;99.90
10788;DHT22;5446;50.826;4.380;2023-09-07T08:26:57;21.90;99.90
10788;DHT22;5446;50.826;4.380;2023-09-07T08:29:23;22.00;99.90
10788;DHT22;5446;50.826;4.380;2023-09-07T08:31:53;22.10;99.90
10788;DHT22;5446;50.826;4.380;2023-09-07T08:34:20;22.20;99.90
10788;DHT22;5446;50.826;4.380;2023-09-07T08:36:47;22.30;99.90
10788;DHT22;5446;50.826;4.380;2023-09-07T08:39:15;22.40;99.90
10788;DHT22;5446;50.826;4.380;2023-09-07T08:41:43;22.40;99.90
10788;DHT22;5446;50.826;4.380;2023-09-07T08:44:17;22.50;99.90
10788;DHT22;5446;50.826;4.380;2023-09-07T08:46:45;22.50;99.90
10788;DHT22;5446;50.826;4.380;2023-09-07T08:49:11;22.50;99.90
10788;DHT22;5446;50.826;4.380;2023-09-07T08:51:38;22.50;99.90
10788;DHT22;5446;50.826;4.380;2023-09-07T08:54:04;22.60;99.90
10788;DHT22;5446;50.826;4.380;2023-09-07T08:56:30;22.70;99.90
10788;DHT22;5446;50.826;4.380;2023-09-07T08:58:57;22.90;99.90
10788;DHT22;5446;50.826;4.380;2023-09-07T09:01:23;23.00;99.90
10788;DHT22;5446;50.826;4.380;2023-09-07T09:03:49;23.10;99.90
10788;DHT22;5446;50.826;4.380;2023-09-07T09:06:21;23.10;99.90
10788;DHT22;5446;50.826;4.380;2023-09-07T09:08:52;23.30;99.90
10788;DHT22;5446;50.826;4.380;2023-09-07T09:11:19;23.40;99.90
10788;DHT22;5446;50.826;4.380;2023-09-07T09:13:45;23.40;99.90
10788;DHT22;5446;50.826;4.380;2023-09-07T09:16:12;23.40;99.90
10788;DHT22;5446;50.826;4.380;2023-09-07T09:18:56;23.40;99.90
10788;DHT22;5446;50.826;4.380;2023-09-07T09:21:24;23.40;99.90
10788;DHT22;5446;50.826;4.380;2023-09-07T09:23:56;23.50;99.90
10788;DHT22;5446;50.826;4.380;2023-09-07T09:26:22;23.50;99.90
10788;DHT22;5446;50.826;4.380;2023-09-07T09:28:49;23.50;99.90
10788;DHT22;5446;50.826;4.380;2023-09-07T09:31:17;23.50;99.90
10788;DHT22;5446;50.826;4.380;2023-09-07T09:33:48;23.60;99.90
10788;DHT22;5446;50.826;4.380;2023-09-07T09:36:14;23.80;99.90
10788;DHT22;5446;50.826;4.380;2023-09-07T09:38:40;23.90;99.90
10788;DHT22;5446;50.826;4.380;2023-09-07T09:41:12;23.90;99.90
10788;DHT22;5446;50.826;4.380;2023-09-07T09:43:38;23.90;99.90
10788;DHT22;5446;50.826;4.380;2023-09-07T09:46:06;23.90;99.90
10788;DHT22;5446;50.826;4.380;2023-09-07T09:48:34;24.00;99.90
10788;DHT22;5446;50.826;4.380;2023-09-07T09:51:03;24.10;99.90
10788;DHT22;5446;50.826;4.380;2023-09-07T09:53:29;24.10;99.90
10788;DHT22;5446;50.826;4.380;2023-09-07T09:55:56;24.10;99.90
10788;DHT22;5446;50.826;4.380;2023-09-07T09:58:21;24.20;99.90
10788;DHT22;5446;50.826;4.380;2023-09-07T10:00:54;24.30;99.90
10788;DHT22;5446;50.826;4.380;2023-09-07T10:05:52;24.30;99.90
10788;DHT22;5446;50.826;4.380;2023-09-07T10:08:19;24.30;99.90
10788;DHT22;5446;50.826;4.380;2023-09-07T10:10:52;24.30;99.90
10788;DHT22;5446;50.826;4.380;2023-09-07T10:13:30;24.30;99.90
10788;DHT22;5446;50.826;4.380;2023-09-07T10:16:06;24.50;99.90
10788;DHT22;5446;50.826;4.380;2023-09-07T10:18:38;24.50;99.90
10788;DHT22;5446;50.826;4.380;2023-09-07T10:21:05;24.50;99.90
10788;DHT22;5446;50.826;4.380;2023-09-07T10:23:39;24.50;99.90
10788;DHT22;5446;50.826;4.380;2023-09-07T10:26:16;24.60;99.90
10788;DHT22;5446;50.826;4.380;2023-09-07T10:28:44;24.70;99.90
10788;DHT22;5446;50.826;4.380;2023-09-07T10:31:18;24.70;99.90
10788;DHT22;5446;50.826;4.380;2023-09-07T10:33:45;24.70;99.90
10788;DHT22;5446;50.826;4.380;2023-09-07T10:36:25;24.70;99.90
10788;DHT22;5446;50.826;4.380;2023-09-07T10:38:52;24.70;99.90
10788;DHT22;5446;50.826;4.380;2023-09-07T10:41:21;24.80;99.90
10788;DHT22;5446;50.826;4.380;2023-09-07T10:43:51;24.70;99.90
10788;DHT22;5446;50.826;4.380;2023-09-07T10:46:23;24.80;99.90
10788;DHT22;5446;50.826;4.380;2023-09-07T10:48:51;24.80;99.90
10788;DHT22;5446;50.826;4.380;2023-09-07T10:51:20;24.80;99.90
10788;DHT22;5446;50.826;4.380;2023-09-07T10:53:46;24.80;99.90
10788;DHT22;5446;50.826;4.380;2023-09-07T10:56:12;24.80;99.90
10788;DHT22;5446;50.826;4.380;2023-09-07T10:58:38;25.00;99.90
10788;DHT22;5446;50.826;4.380;2023-09-07T11:01:06;25.00;99.90
10788;DHT22;5446;50.826;4.380;2023-09-07T11:03:31;25.10;99.90
10788;DHT22;5446;50.826;4.380;2023-09-07T11:08:29;25.10;99.90
10788;DHT22;5446;50.826;4.380;2023-09-07T11:10:55;25.20;99.90
10788;DHT22;5446;50.826;4.380;2023-09-07T11:13:23;25.10;99.90
10788;DHT22;5446;50.826;4.380;2023-09-07T11:15:49;25.20;99.90
10788;DHT22;5446;50.826;4.380;2023-09-07T11:18:20;25.30;99.90
10788;DHT22;5446;50.826;4.380;2023-09-07T11:20:47;25.30;99.90
10788;DHT22;5446;50.826;4.380;2023-09-07T11:23:14;25.40;99.90
10788;DHT22;5446;50.826;4.380;2023-09-07T11:25:39;25.40;99.90
10788;DHT22;5446;50.826;4.380;2023-09-07T11:28:06;25.50;99.90
10788;DHT22;5446;50.826;4.380;2023-09-07T11:30:33;25.60;99.90
10788;DHT22;5446;50.826;4.380;2023-09-07T11:33:06;25.60;99.90
10788;DHT22;5446;50.826;4.380;2023-09-07T11:35:33;25.70;99.90
10788;DHT22;5446;50.826;4.380;2023-09-07T11:38:00;25.70;99.90
10788;DHT22;5446;50.826;4.380;2023-09-07T11:40:26;25.70;99.90
10788;DHT22;5446;50.826;4.380;2023-09-07T11:42:52;25.70;99.90
10788;DHT22;5446;50.826;4.380;2023-09-07T11:45:18;25.80;99.90
10788;DHT22;5446;50.826;4.380;2023-09-07T11:47:45;25.90;99.90
10788;DHT22;5446;50.826;4.380;2023-09-07T11:50:11;25.90;99.90
10788;DHT22;5446;50.826;4.380;2023-09-07T11:52:36;26.00;99.90
10788;DHT22;5446;50.826;4.380;2023-09-07T11:55:02;26.00;99.90
10788;DHT22;5446;50.826;4.380;2023-09-07T11:57:29;26.10;99.90
10788;DHT22;5446;50.826;4.380;2023-09-07T11:59:55;26.20;99.90
10788;DHT22;5446;50.826;4.380;2023-09-07T12:02:21;26.30;99.90
10788;DHT22;5446;50.826;4.380;2023-09-07T12:04:47;26.30;99.90
10788;DHT22;5446;50.826;4.380;2023-09-07T12:07:14;26.30;99.90
10788;DHT22;5446;50.826;4.380;2023-09-07T12:09:40;26.40;99.90
10788;DHT22;5446;50.826;4.380;2023-09-07T12:12:06;26.40;99.90
10788;DHT22;5446;50.826;4.380;2023-09-07T12:14:32;26.30;99.90
10788;DHT22;5446;50.826;4.380;2023-09-07T12:16:57;26.30;99.90
10788;DHT22;5446;50.826;4.380;2023-09-07T12:19:23;26.30;99.90
10788;DHT22;5446;50.826;4.380;2023-09-07T12:21:51;26.30;99.90
10788;DHT22;5446;50.826;4.380;2023-09-07T12:24:17;26.30;99.90
10788;DHT22;5446;50.826;4.380;2023-09-07T12:26:42;26.30;99.90
10788;DHT22;5446;50.826;4.380;2023-09-07T12:29:08;26.40;99.90
10788;DHT22;5446;50.826;4.380;2023-09-07T12:31:34;26.50;99.90
10788;DHT22;5446;50.826;4.380;2023-09-07T12:34:00;26.60;99.90
10788;DHT22;5446;50.826;4.380;2023-09-07T12:36:25;26.60;99.90
10788;DHT22;5446;50.826;4.380;2023-09-07T12:38:55;26.70;99.90
10788;DHT22;5446;50.826;4.380;2023-09-07T12:41:29;26.70;99.90
10788;DHT22;5446;50.826;4.380;2023-09-07T12:43:56;26.50;99.90
10788;DHT22;5446;50.826;4.380;2023-09-07T12:46:22;26.70;99.90
10788;DHT22;5446;50.826;4.380;2023-09-07T12:48:47;26.60;99.90
10788;DHT22;5446;50.826;4.380;2023-09-07T12:51:13;26.70;99.90
10788;DHT22;5446;50.826;4.380;2023-09-07T12:53:39;26.70;99.90
10788;DHT22;5446;50.826;4.380;2023-09-07T12:56:05;26.80;99.90
10788;DHT22;5446;50.826;4.380;2023-09-07T12:58:31;27.00;99.90
10788;DHT22;5446;50.826;4.380;2023-09-07T13:00:57;27.10;99.90
10788;DHT22;5446;50.826;4.380;2023-09-07T13:03:22;27.00;99.90
10788;DHT22;5446;50.826;4.380;2023-09-07T13:05:48;27.00;99.90
10788;DHT22;5446;50.826;4.380;2023-09-07T13:08:15;26.90;99.90
10788;DHT22;5446;50.826;4.380;2023-09-07T13:10:40;26.90;99.90
10788;DHT22;5446;50.826;4.380;2023-09-07T13:13:06;26.90;99.90
10788;DHT22;5446;50.826;4.380;2023-09-07T13:15:32;27.00;99.90
10788;DHT22;5446;50.826;4.380;2023-09-07T13:17:58;27.10;99.90
10788;DHT22;5446;50.826;4.380;2023-09-07T13:20:24;27.10;99.90
10788;DHT22;5446;50.826;4.380;2023-09-07T13:22:50;27.10;99.90
10788;DHT22;5446;50.826;4.380;2023-09-07T13:25:15;27.20;99.90
10788;DHT22;5446;50.826;4.380;2023-09-07T13:27:41;27.20;99.90
10788;DHT22;5446;50.826;4.380;2023-09-07T13:30:07;27.50;99.90
10788;DHT22;5446;50.826;4.380;2023-09-07T13:32:38;27.50;99.90
10788;DHT22;5446;50.826;4.380;2023-09-07T13:35:04;27.40;99.90
10788;DHT22;5446;50.826;4.380;2023-09-07T13:37:30;27.40;99.90
10788;DHT22;5446;50.826;4.380;2023-09-07T13:39:56;27.50;99.90
10788;DHT22;5446;50.826;4.380;2023-09-07T13:42:22;27.50;99.90
10788;DHT22;5446;50.826;4.380;2023-09-07T13:44:47;27.60;99.90
10788;DHT22;5446;50.826;4.380;2023-09-07T13:47:15;27.60;99.90
10788;DHT22;5446;50.826;4.380;2023-09-07T13:49:40;27.60;99.90
10788;DHT22;5446;50.826;4.380;2023-09-07T13:52:06;27.60;99.90
10788;DHT22;5446;50.826;4.380;2023-09-07T13:54:32;27.70;99.90
10788;DHT22;5446;50.826;4.380;2023-09-07T13:56:57;27.80;99.90
10788;DHT22;5446;50.826;4.380;2023-09-07T13:59:23;27.80;99.90
10788;DHT22;5446;50.826;4.380;2023-09-07T14:01:54;27.70;99.90
10788;DHT22;5446;50.826;4.380;2023-09-07T14:04:19;27.70;99.90
10788;DHT22;5446;50.826;4.380;2023-09-07T14:06:45;27.80;99.90
10788;DHT22;5446;50.826;4.380;2023-09-07T14:09:11;27.90;99.90
10788;DHT22;5446;50.826;4.380;2023-09-07T14:11:36;27.80;99.90
10788;DHT22;5446;50.826;4.380;2023-09-07T14:14:03;27.90;99.90
10788;DHT22;5446;50.826;4.380;2023-09-07T14:16:28;28.00;99.90
10788;DHT22;5446;50.826;4.380;2023-09-07T14:18:55;27.90;99.90
10788;DHT22;5446;50.826;4.380;2023-09-07T14:21:21;27.90;99.90
10788;DHT22;5446;50.826;4.380;2023-09-07T14:23:46;28.00;99.90
10788;DHT22;5446;50.826;4.380;2023-09-07T14:26:12;28.10;99.90
10788;DHT22;5446;50.826;4.380;2023-09-07T14:28:38;28.10;99.90
10788;DHT22;5446;50.826;4.380;2023-09-07T14:31:05;28.20;99.90
10788;DHT22;5446;50.826;4.380;2023-09-07T14:33:35;28.20;99.90
10788;DHT22;5446;50.826;4.380;2023-09-07T14:36:05;28.30;99.90
10788;DHT22;5446;50.826;4.380;2023-09-07T14:38:30;28.30;99.90
10788;DHT22;5446;50.826;4.380;2023-09-07T14:41:00;28.30;99.90
10788;DHT22;5446;50.826;4.380;2023-09-07T14:43:26;28.40;99.90
10788;DHT22;5446;50.826;4.380;2023-09-07T14:45:51;28.50;99.90
10788;DHT22;5446;50.826;4.380;2023-09-07T14:48:17;28.40;99.90
10788;DHT22;5446;50.826;4.380;2023-09-07T14:50:43;28.50;99.90
10788;DHT22;5446;50.826;4.380;2023-09-07T14:53:09;28.50;99.90
10788;DHT22;5446;50.826;4.380;2023-09-07T14:55:34;28.50;99.90
10788;DHT22;5446;50.826;4.380;2023-09-07T14:58:00;28.60;99.90
10788;DHT22;5446;50.826;4.380;2023-09-07T15:00:26;28.70;99.90
10788;DHT22;5446;50.826;4.380;2023-09-07T15:02:53;28.60;99.90
10788;DHT22;5446;50.826;4.380;2023-09-07T15:05:19;28.60;99.90
10788;DHT22;5446;50.826;4.380;2023-09-07T15:07:44;28.80;99.90
10788;DHT22;5446;50.826;4.380;2023-09-07T15:10:10;28.80;99.90
10788;DHT22;5446;50.826;4.380;2023-09-07T15:12:37;28.80;99.90
10788;DHT22;5446;50.826;4.380;2023-09-07T15:15:02;28.80;99.90
10788;DHT22;5446;50.826;4.380;2023-09-07T15:17:28;28.80;99.90
10788;DHT22;5446;50.826;4.380;2023-09-07T15:19:54;28.90;99.90
10788;DHT22;5446;50.826;4.380;2023-09-07T15:22:20;28.90;99.90
10788;DHT22;5446;50.826;4.380;2023-09-07T15:24:46;28.90;99.90
10788;DHT22;5446;50.826;4.380;2023-09-07T15:27:12;28.90;99.90
10788;DHT22;5446;50.826;4.380;2023-09-07T15:29:38;28.90;99.90
10788;DHT22;5446;50.826;4.380;2023-09-07T15:32:05;28.90;99.90
10788;DHT22;5446;50.826;4.380;2023-09-07T15:34:33;28.90;99.90
10788;DHT22;5446;50.826;4.380;2023-09-07T15:37:00;28.90;99.90
10788;DHT22;5446;50.826;4.380;2023-09-07T15:39:28;28.90;99.90
10788;DHT22;5446;50.826;4.380;2023-09-07T15:41:54;28.90;99.90
10788;DHT22;5446;50.826;4.380;2023-09-07T15:44:20;28.90;99.90
10788;DHT22;5446;50.826;4.380;2023-09-07T15:46:45;28.90;99.90